sensor_id;sensor_type;location;lat;lon;timestamp;pressure;altitude;pressure_sealevel;temperature;humidity
48942;BME280;35340;52.378;4.648;2022-10-16T00:04:57;100855.69;;;17.41;61.40
48942;BME280;35340;52.378;4.648;2022-10-16T00:07:22;100860.03;;;17.41;61.39
48942;BME280;35340;52.378;4.648;2022-10-16T00:09:48;100853.09;;;17.41;61.35
48942;BME280;35340;52.378;4.648;2022-10-16T00:12:13;100864.34;;;17.42;61.47
48942;BME280;35340;52.378;4.648;2022-10-16T00:14:48;100856.56;;;17.42;61.32
48942;BME280;35340;52.378;4.648;2022-10-16T00:17:15;100854.00;;;17.39;61.35
48942;BME280;35340;52.378;4.648;2022-10-16T00:19:40;100858.31;;;17.41;61.47
48942;BME280;35340;52.378;4.648;2022-10-16T00:22:06;100861.75;;;17.42;61.40
48942;BME280;35340;52.378;4.648;2022-10-16T00:24:31;100867.84;;;17.41;61.29
48942;BME280;35340;52.378;4.648;2022-10-16T00:26:57;100866.09;;;17.43;61.38
48942;BME280;35340;52.378;4.648;2022-10-16T00:29:22;100860.03;;;17.41;61.31
48942;BME280;35340;52.378;4.648;2022-10-16T00:32:12;100860.91;;;17.41;61.37
48942;BME280;35340;52.378;4.648;2022-10-16T00:34:38;100847.94;;;17.40;61.37
48942;BME280;35340;52.378;4.648;2022-10-16T00:37:03;100844.44;;;17.39;61.23
48942;BME280;35340;52.378;4.648;2022-10-16T00:52:58;100849.66;;;17.39;61.37
48942;BME280;35340;52.378;4.648;2022-10-16T00:55:26;100853.13;;;17.40;61.39
48942;BME280;35340;52.378;4.648;2022-10-16T00:57:54;100862.66;;;17.39;61.24
48942;BME280;35340;52.378;4.648;2022-10-16T01:03:49;100859.19;;;17.40;61.30
48942;BME280;35340;52.378;4.648;2022-10-16T01:40:58;100859.19;;;17.37;61.42
48942;BME280;35340;52.378;4.648;2022-10-16T01:43:30;100865.28;;;17.38;61.42
48942;BME280;35340;52.378;4.648;2022-10-16T01:46:09;100862.69;;;17.36;61.36
48942;BME280;35340;52.378;4.648;2022-10-16T01:55:09;100873.94;;;17.38;61.19
48942;BME280;35340;52.378;4.648;2022-10-16T02:03:24;100878.28;;;17.38;61.25
48942;BME280;35340;52.378;4.648;2022-10-16T02:11:42;100886.09;;;17.36;61.37
48942;BME280;35340;52.378;4.648;2022-10-16T02:14:37;100893.00;;;17.39;61.34
48942;BME280;35340;52.378;4.648;2022-10-16T02:17:23;100887.81;;;17.37;61.10
48942;BME280;35340;52.378;4.648;2022-10-16T02:22:58;100885.22;;;17.37;61.19
48942;BME280;35340;52.378;4.648;2022-10-16T03:00:58;100912.97;;;17.35;61.22
48942;BME280;35340;52.378;4.648;2022-10-16T03:03:27;100922.53;;;17.35;61.25
48942;BME280;35340;52.378;4.648;2022-10-16T03:05:52;100931.19;;;17.35;61.28
48942;BME280;35340;52.378;4.648;2022-10-16T03:43:42;100942.47;;;17.34;61.29
48942;BME280;35340;52.378;4.648;2022-10-16T04:03:31;100966.75;;;17.33;61.04
48942;BME280;35340;52.378;4.648;2022-10-16T04:05:56;100954.63;;;17.31;61.10
48942;BME280;35340;52.378;4.648;2022-10-16T04:18:45;100956.38;;;17.32;61.31
48942;BME280;35340;52.378;4.648;2022-10-16T04:21:10;100956.38;;;17.32;61.16
48942;BME280;35340;52.378;4.648;2022-10-16T04:23:35;100962.44;;;17.32;61.40
48942;BME280;35340;52.378;4.648;2022-10-16T04:26:01;100965.03;;;17.32;61.27
48942;BME280;35340;52.378;4.648;2022-10-16T04:28:26;100956.38;;;17.32;61.10
48942;BME280;35340;52.378;4.648;2022-10-16T04:30:52;100975.44;;;17.32;61.11
48942;BME280;35340;52.378;4.648;2022-10-16T04:33:17;100974.53;;;17.33;61.17
48942;BME280;35340;52.378;4.648;2022-10-16T04:35:42;100965.88;;;17.33;61.08
48942;BME280;35340;52.378;4.648;2022-10-16T04:38:08;100975.44;;;17.32;61.11
48942;BME280;35340;52.378;4.648;2022-10-16T04:40:33;100975.44;;;17.32;61.16
48942;BME280;35340;52.378;4.648;2022-10-16T04:43:01;100981.53;;;17.31;61.11
48942;BME280;35340;52.378;4.648;2022-10-16T04:45:27;100985.84;;;17.32;61.30
48942;BME280;35340;52.378;4.648;2022-10-16T04:47:52;100983.22;;;17.31;61.31
48942;BME280;35340;52.378;4.648;2022-10-16T04:50:17;100996.25;;;17.32;61.13
48942;BME280;35340;52.378;4.648;2022-10-16T04:52:43;101000.59;;;17.32;61.14
48942;BME280;35340;52.378;4.648;2022-10-16T04:55:08;100998.84;;;17.31;61.21
48942;BME280;35340;52.378;4.648;2022-10-16T04:57:33;101012.72;;;17.31;60.89
48942;BME280;35340;52.378;4.648;2022-10-16T04:59:59;101019.66;;;17.32;60.88
48942;BME280;35340;52.378;4.648;2022-10-16T05:02:25;101013.59;;;17.30;60.98
48942;BME280;35340;52.378;4.648;2022-10-16T05:04:51;101017.94;;;17.31;61.37
48942;BME280;35340;52.378;4.648;2022-10-16T05:07:16;101017.94;;;17.31;61.10
48942;BME280;35340;52.378;4.648;2022-10-16T05:09:42;101021.41;;;17.30;61.38
48942;BME280;35340;52.378;4.648;2022-10-16T05:12:07;101018.78;;;17.30;61.35
48942;BME280;35340;52.378;4.648;2022-10-16T05:14:33;101024.84;;;17.31;61.08
48942;BME280;35340;52.378;4.648;2022-10-16T05:16:59;101027.44;;;17.31;61.23
48942;BME280;35340;52.378;4.648;2022-10-16T05:19:25;101039.59;;;17.30;61.02
48942;BME280;35340;52.378;4.648;2022-10-16T05:21:50;101041.34;;;17.31;61.16
48942;BME280;35340;52.378;4.648;2022-10-16T05:24:16;101047.41;;;17.32;61.49
48942;BME280;35340;52.378;4.648;2022-10-16T05:26:41;101050.88;;;17.31;61.26
48942;BME280;35340;52.378;4.648;2022-10-16T05:29:06;101059.56;;;17.31;61.09
48942;BME280;35340;52.378;4.648;2022-10-16T05:31:32;101059.56;;;17.31;61.18
48942;BME280;35340;52.378;4.648;2022-10-16T05:34:01;101064.75;;;17.31;61.09
48942;BME280;35340;52.378;4.648;2022-10-16T05:36:26;101068.22;;;17.30;61.35
48942;BME280;35340;52.378;4.648;2022-10-16T05:38:52;101068.22;;;17.30;61.24
48942;BME280;35340;52.378;4.648;2022-10-16T05:41:18;101069.06;;;17.31;61.34
48942;BME280;35340;52.378;4.648;2022-10-16T05:43:49;101059.56;;;17.30;61.14
48942;BME280;35340;52.378;4.648;2022-10-16T05:46:16;101067.34;;;17.30;61.31
48942;BME280;35340;52.378;4.648;2022-10-16T05:48:41;101069.97;;;17.30;61.26
48942;BME280;35340;52.378;4.648;2022-10-16T05:51:10;101069.06;;;17.31;61.02
48942;BME280;35340;52.378;4.648;2022-10-16T05:53:37;101076.88;;;17.31;61.39
48942;BME280;35340;52.378;4.648;2022-10-16T05:56:04;101066.47;;;17.31;61.15
48942;BME280;35340;52.378;4.648;2022-10-16T05:58:33;101063.91;;;17.29;61.25
48942;BME280;35340;52.378;4.648;2022-10-16T06:01:04;101074.28;;;17.31;61.19
48942;BME280;35340;52.378;4.648;2022-10-16T06:03:32;101073.41;;;17.30;61.26
48942;BME280;35340;52.378;4.648;2022-10-16T06:05:57;101069.09;;;17.29;61.24
48942;BME280;35340;52.378;4.648;2022-10-16T06:08:23;101072.56;;;17.30;61.21
48942;BME280;35340;52.378;4.648;2022-10-16T06:10:49;101076.00;;;17.30;61.32
48942;BME280;35340;52.378;4.648;2022-10-16T06:13:14;101076.91;;;17.29;61.27
48942;BME280;35340;52.378;4.648;2022-10-16T06:15:41;101081.22;;;17.30;61.23
48942;BME280;35340;52.378;4.648;2022-10-16T06:18:10;101076.91;;;17.29;61.25
48942;BME280;35340;52.378;4.648;2022-10-16T06:20:36;101084.72;;;17.29;61.43
48942;BME280;35340;52.378;4.648;2022-10-16T06:23:01;101091.63;;;17.30;61.21
48942;BME280;35340;52.378;4.648;2022-10-16T06:25:27;101095.94;;;17.33;61.19
48942;BME280;35340;52.378;4.648;2022-10-16T06:27:52;101100.28;;;17.31;61.15
48942;BME280;35340;52.378;4.648;2022-10-16T06:30:17;101112.44;;;17.32;61.08
48942;BME280;35340;52.378;4.648;2022-10-16T06:32:43;101117.63;;;17.32;61.15
48942;BME280;35340;52.378;4.648;2022-10-16T06:35:08;101115.88;;;17.31;61.13
48942;BME280;35340;52.378;4.648;2022-10-16T06:37:33;101118.50;;;17.31;61.18
48942;BME280;35340;52.378;4.648;2022-10-16T06:39:59;101115.88;;;17.32;61.32
48942;BME280;35340;52.378;4.648;2022-10-16T06:42:25;101118.50;;;17.32;61.12
48942;BME280;35340;52.378;4.648;2022-10-16T06:44:51;101121.97;;;17.34;61.31
48942;BME280;35340;52.378;4.648;2022-10-16T06:47:16;101122.81;;;17.33;61.15
48942;BME280;35340;52.378;4.648;2022-10-16T06:49:41;101139.31;;;17.34;61.30
48942;BME280;35340;52.378;4.648;2022-10-16T06:52:06;101132.34;;;17.34;61.30
48942;BME280;35340;52.378;4.648;2022-10-16T06:54:32;101144.47;;;17.37;61.13
48942;BME280;35340;52.378;4.648;2022-10-16T06:56:58;101141.03;;;17.36;61.29
48942;BME280;35340;52.378;4.648;2022-10-16T06:59:25;101147.09;;;17.38;61.07
48942;BME280;35340;52.378;4.648;2022-10-16T07:01:50;101153.16;;;17.40;61.08
48942;BME280;35340;52.378;4.648;2022-10-16T07:04:15;101153.16;;;17.40;61.17
48942;BME280;35340;52.378;4.648;2022-10-16T07:06:41;101159.22;;;17.42;61.21
48942;BME280;35340;52.378;4.648;2022-10-16T07:09:09;101158.34;;;17.46;61.10
48942;BME280;35340;52.378;4.648;2022-10-16T07:11:37;101178.25;;;17.51;60.94
48942;BME280;35340;52.378;4.648;2022-10-16T07:14:03;101174.75;;;17.55;61.12
48942;BME280;35340;52.378;4.648;2022-10-16T07:16:31;101180.81;;;17.57;60.93
48942;BME280;35340;52.378;4.648;2022-10-16T07:18:59;101186.91;;;17.59;60.97
48942;BME280;35340;52.378;4.648;2022-10-16T07:21:27;101181.72;;;17.57;61.04
48942;BME280;35340;52.378;4.648;2022-10-16T07:23:58;101190.34;;;17.61;61.01
48942;BME280;35340;52.378;4.648;2022-10-16T07:26:25;101202.50;;;17.62;61.17
48942;BME280;35340;52.378;4.648;2022-10-16T07:28:50;101202.53;;;17.57;61.38
48942;BME280;35340;52.378;4.648;2022-10-16T07:31:18;101219.84;;;17.66;61.17
48942;BME280;35340;52.378;4.648;2022-10-16T07:33:45;101226.75;;;17.72;60.92
48942;BME280;35340;52.378;4.648;2022-10-16T07:36:12;101238.88;;;17.74;61.11
48942;BME280;35340;52.378;4.648;2022-10-16T07:38:37;101242.34;;;17.76;61.11
48942;BME280;35340;52.378;4.648;2022-10-16T07:41:05;101246.69;;;17.76;61.26
48942;BME280;35340;52.378;4.648;2022-10-16T07:43:31;101250.19;;;17.84;60.75
48942;BME280;35340;52.378;4.648;2022-10-16T07:45:57;101244.94;;;17.95;60.95
48942;BME280;35340;52.378;4.648;2022-10-16T07:48:26;101257.09;;;17.86;61.03
48942;BME280;35340;52.378;4.648;2022-10-16T07:50:51;101264.94;;;17.83;61.00
48942;BME280;35340;52.378;4.648;2022-10-16T07:53:17;101264.94;;;17.82;61.34
48942;BME280;35340;52.378;4.648;2022-10-16T07:55:42;101261.31;;;18.14;60.45
48942;BME280;35340;52.378;4.648;2022-10-16T07:58:08;101263.97;;;18.04;60.72
48942;BME280;35340;52.378;4.648;2022-10-16T08:00:35;101265.59;;;18.22;60.55
48942;BME280;35340;52.378;4.648;2022-10-16T08:03:01;101268.22;;;18.18;60.72
48942;BME280;35340;52.378;4.648;2022-10-16T08:05:31;101276.91;;;18.20;60.73
48942;BME280;35340;52.378;4.648;2022-10-16T08:07:57;101278.56;;;18.35;60.18
48942;BME280;35340;52.378;4.648;2022-10-16T08:10:24;101280.19;;;18.53;60.21
48942;BME280;35340;52.378;4.648;2022-10-16T08:12:51;101290.50;;;18.69;60.13
48942;BME280;35340;52.378;4.648;2022-10-16T08:15:17;101289.66;;;18.70;59.99
48942;BME280;35340;52.378;4.648;2022-10-16T08:17:42;101290.66;;;18.51;60.49
48942;BME280;35340;52.378;4.648;2022-10-16T08:20:09;101298.53;;;18.40;60.88
48942;BME280;35340;52.378;4.648;2022-10-16T08:22:34;101301.09;;;18.42;60.94
48942;BME280;35340;52.378;4.648;2022-10-16T08:25:00;101305.44;;;18.46;60.58
48942;BME280;35340;52.378;4.648;2022-10-16T08:27:33;101297.59;;;18.50;60.46
48942;BME280;35340;52.378;4.648;2022-10-16T08:29:59;101308.00;;;18.52;60.42
48942;BME280;35340;52.378;4.648;2022-10-16T08:32:24;101316.75;;;18.45;60.39
48942;BME280;35340;52.378;4.648;2022-10-16T08:34:49;101322.91;;;18.32;60.90
48942;BME280;35340;52.378;4.648;2022-10-16T08:37:15;101331.59;;;18.27;60.94
48942;BME280;35340;52.378;4.648;2022-10-16T08:39:40;101333.31;;;18.28;60.86
48942;BME280;35340;52.378;4.648;2022-10-16T08:47:31;101345.47;;;18.36;60.81
48942;BME280;35340;52.378;4.648;2022-10-16T08:50:08;101347.19;;;18.29;60.91
48942;BME280;35340;52.378;4.648;2022-10-16T08:52:39;101357.63;;;18.30;61.09
48942;BME280;35340;52.378;4.648;2022-10-16T08:55:05;101364.56;;;18.33;60.75
48942;BME280;35340;52.378;4.648;2022-10-16T08:57:30;101369.78;;;18.32;60.88
48942;BME280;35340;52.378;4.648;2022-10-16T09:00:12;101378.47;;;18.32;60.76
48942;BME280;35340;52.378;4.648;2022-10-16T09:02:43;101380.22;;;18.28;60.80
48942;BME280;35340;52.378;4.648;2022-10-16T09:05:27;101392.41;;;18.25;61.00
48942;BME280;35340;52.378;4.648;2022-10-16T09:08:17;101390.66;;;18.22;61.07
48942;BME280;35340;52.378;4.648;2022-10-16T09:10:59;101396.75;;;18.23;60.99
48942;BME280;35340;52.378;4.648;2022-10-16T09:13:52;101396.75;;;18.21;61.01
48942;BME280;35340;52.378;4.648;2022-10-16T09:19:12;101402.84;;;18.19;61.20
48942;BME280;35340;52.378;4.648;2022-10-16T09:21:42;101399.38;;;18.18;61.19
48942;BME280;35340;52.378;4.648;2022-10-16T09:24:15;101405.44;;;18.17;60.99
48942;BME280;35340;52.378;4.648;2022-10-16T09:26:42;101417.59;;;18.17;61.37
48942;BME280;35340;52.378;4.648;2022-10-16T09:29:11;101411.53;;;18.16;60.94
48942;BME280;35340;52.378;4.648;2022-10-16T09:31:37;101419.34;;;18.16;60.90
48942;BME280;35340;52.378;4.648;2022-10-16T09:34:04;101417.59;;;18.17;61.05
48942;BME280;35340;52.378;4.648;2022-10-16T09:36:36;101424.56;;;18.16;61.13
48942;BME280;35340;52.378;4.648;2022-10-16T09:39:07;101422.81;;;18.15;61.09
48942;BME280;35340;52.378;4.648;2022-10-16T09:41:37;101422.81;;;18.14;61.06
48942;BME280;35340;52.378;4.648;2022-10-16T09:44:13;101422.81;;;18.14;60.79
48942;BME280;35340;52.378;4.648;2022-10-16T09:46:42;101433.22;;;18.14;61.15
48942;BME280;35340;52.378;4.648;2022-10-16T09:51:46;101434.09;;;18.13;61.09
48942;BME280;35340;52.378;4.648;2022-10-16T09:54:16;101434.97;;;18.12;60.89
48942;BME280;35340;52.378;4.648;2022-10-16T09:56:41;101433.25;;;18.12;61.07
48942;BME280;35340;52.378;4.648;2022-10-16T09:59:14;101435.84;;;18.12;61.07
48942;BME280;35340;52.378;4.648;2022-10-16T10:01:42;101434.09;;;18.11;60.81
48942;BME280;35340;52.378;4.648;2022-10-16T10:04:10;101438.44;;;18.12;60.99
48942;BME280;35340;52.378;4.648;2022-10-16T10:06:45;101443.66;;;18.12;60.92
48942;BME280;35340;52.378;4.648;2022-10-16T10:09:24;101442.78;;;18.15;61.07
48942;BME280;35340;52.378;4.648;2022-10-16T10:14:30;101441.91;;;18.16;61.04
48942;BME280;35340;52.378;4.648;2022-10-16T10:17:22;101453.22;;;18.16;61.10
48942;BME280;35340;52.378;4.648;2022-10-16T10:22:40;101463.63;;;18.16;60.97
48942;BME280;35340;52.378;4.648;2022-10-16T10:36:16;101481.84;;;18.18;60.83
48942;BME280;35340;52.378;4.648;2022-10-16T10:49:40;101496.63;;;18.19;60.78
48942;BME280;35340;52.378;4.648;2022-10-16T10:55:06;101504.41;;;18.17;60.79
48942;BME280;35340;52.378;4.648;2022-10-16T11:00:28;101519.16;;;18.20;60.87
48942;BME280;35340;52.378;4.648;2022-10-16T11:05:31;101501.81;;;18.17;60.73
48942;BME280;35340;52.378;4.648;2022-10-16T11:08:08;101526.13;;;18.19;60.40
48942;BME280;35340;52.378;4.648;2022-10-16T11:10:47;101519.16;;;18.20;60.92
48942;BME280;35340;52.378;4.648;2022-10-16T11:16:47;101523.53;;;18.19;60.82
48942;BME280;35340;52.378;4.648;2022-10-16T11:19:42;101535.69;;;18.19;60.85
48942;BME280;35340;52.378;4.648;2022-10-16T11:24:51;101528.72;;;18.22;60.76
48942;BME280;35340;52.378;4.648;2022-10-16T11:27:23;101533.94;;;18.22;60.75
48942;BME280;35340;52.378;4.648;2022-10-16T11:30:03;101527.88;;;18.25;60.85
48942;BME280;35340;52.378;4.648;2022-10-16T11:32:36;101536.53;;;18.25;60.80
48942;BME280;35340;52.378;4.648;2022-10-16T11:35:11;101542.63;;;18.26;61.35
48942;BME280;35340;52.378;4.648;2022-10-16T11:37:43;101555.66;;;18.27;61.04
48942;BME280;35340;52.378;4.648;2022-10-16T11:40:25;101544.34;;;18.30;60.98
48942;BME280;35340;52.378;4.648;2022-10-16T11:43:15;101544.38;;;18.32;61.06
48942;BME280;35340;52.378;4.648;2022-10-16T11:45:49;101554.75;;;18.33;61.19
48942;BME280;35340;52.378;4.648;2022-10-16T11:48:36;101546.97;;;18.32;61.01
48942;BME280;35340;52.378;4.648;2022-10-16T11:51:13;101551.31;;;18.34;60.98
48942;BME280;35340;52.378;4.648;2022-10-16T11:56:36;101556.50;;;18.37;61.06
48942;BME280;35340;52.378;4.648;2022-10-16T11:59:31;101555.66;;;18.38;60.96
48942;BME280;35340;52.378;4.648;2022-10-16T12:04:57;101567.78;;;18.38;61.00
48942;BME280;35340;52.378;4.648;2022-10-16T12:07:34;101559.13;;;18.36;60.97
48942;BME280;35340;52.378;4.648;2022-10-16T12:10:23;101568.66;;;18.37;60.99
48942;BME280;35340;52.378;4.648;2022-10-16T12:12:49;101569.53;;;18.37;61.12
48942;BME280;35340;52.378;4.648;2022-10-16T12:15:29;101575.63;;;18.36;61.10
48942;BME280;35340;52.378;4.648;2022-10-16T12:17:55;101581.69;;;18.38;61.15
48942;BME280;35340;52.378;4.648;2022-10-16T12:20:27;101582.56;;;18.39;61.15
48942;BME280;35340;52.378;4.648;2022-10-16T12:23:04;101580.81;;;18.39;61.32
48942;BME280;35340;52.378;4.648;2022-10-16T12:25:36;101583.44;;;18.42;61.04
48942;BME280;35340;52.378;4.648;2022-10-16T12:28:19;101584.28;;;18.46;61.10
48942;BME280;35340;52.378;4.648;2022-10-16T12:31:02;101586.88;;;18.46;60.94
48942;BME280;35340;52.378;4.648;2022-10-16T12:33:33;101587.75;;;18.43;61.02
48942;BME280;35340;52.378;4.648;2022-10-16T12:36:01;101592.13;;;18.43;61.03
48942;BME280;35340;52.378;4.648;2022-10-16T12:38:49;101587.75;;;18.53;61.26
48942;BME280;35340;52.378;4.648;2022-10-16T12:41:35;101586.00;;;18.65;63.03
48942;BME280;35340;52.378;4.648;2022-10-16T12:44:03;101580.75;;;18.70;65.04
48942;BME280;35340;52.378;4.648;2022-10-16T12:51:40;101605.16;;;18.21;72.44
48942;BME280;35340;52.378;4.648;2022-10-16T12:54:27;101602.53;;;18.09;70.02
48942;BME280;35340;52.378;4.648;2022-10-16T12:59:52;101607.72;;;17.86;68.80
48942;BME280;35340;52.378;4.648;2022-10-16T13:03:06;101604.22;;;17.79;69.31
48942;BME280;35340;52.378;4.648;2022-10-16T13:05:58;101600.72;;;17.74;69.30
48942;BME280;35340;52.378;4.648;2022-10-16T13:08:52;101606.78;;;17.70;70.21
48942;BME280;35340;52.378;4.648;2022-10-16T13:11:29;101615.47;;;17.69;68.92
48942;BME280;35340;52.378;4.648;2022-10-16T13:25:28;101621.50;;;17.63;68.79
48942;BME280;35340;52.378;4.648;2022-10-16T13:28:07;101631.94;;;17.62;68.14
48942;BME280;35340;52.378;4.648;2022-10-16T13:30:40;101637.16;;;17.62;69.29
48942;BME280;35340;52.378;4.648;2022-10-16T13:33:16;101642.34;;;17.62;68.77
48942;BME280;35340;52.378;4.648;2022-10-16T13:35:51;101644.09;;;17.60;68.96
48942;BME280;35340;52.378;4.648;2022-10-16T13:38:22;101641.47;;;17.61;68.19
48942;BME280;35340;52.378;4.648;2022-10-16T13:40:59;101644.97;;;17.62;68.36
48942;BME280;35340;52.378;4.648;2022-10-16T13:43:52;101646.69;;;17.60;68.94
48942;BME280;35340;52.378;4.648;2022-10-16T13:46:22;101646.66;;;17.58;68.86
48942;BME280;35340;52.378;4.648;2022-10-16T13:49:02;101652.75;;;17.60;68.61
48942;BME280;35340;52.378;4.648;2022-10-16T13:51:30;101657.97;;;17.62;69.15
48942;BME280;35340;52.378;4.648;2022-10-16T13:53:56;101656.19;;;17.59;68.88
48942;BME280;35340;52.378;4.648;2022-10-16T13:56:26;101659.69;;;17.58;69.91
48942;BME280;35340;52.378;4.648;2022-10-16T14:01:31;101657.09;;;17.60;68.56
48942;BME280;35340;52.378;4.648;2022-10-16T14:04:08;101654.47;;;17.61;69.11
48942;BME280;35340;52.378;4.648;2022-10-16T14:06:36;101665.75;;;17.63;68.63
48942;BME280;35340;52.378;4.648;2022-10-16T14:09:14;101670.09;;;17.63;68.87
48942;BME280;35340;52.378;4.648;2022-10-16T14:11:48;101657.97;;;17.62;68.07
48942;BME280;35340;52.378;4.648;2022-10-16T14:14:15;101657.09;;;17.60;69.27
48942;BME280;35340;52.378;4.648;2022-10-16T14:16:42;101652.75;;;17.59;69.24
48942;BME280;35340;52.378;4.648;2022-10-16T14:21:43;101648.41;;;17.58;68.39
48942;BME280;35340;52.378;4.648;2022-10-16T14:24:13;101653.63;;;17.58;70.31
48942;BME280;35340;52.378;4.648;2022-10-16T14:26:43;101656.22;;;17.58;68.29
48942;BME280;35340;52.378;4.648;2022-10-16T14:29:15;101646.66;;;17.58;69.36
48942;BME280;35340;52.378;4.648;2022-10-16T14:31:42;101652.75;;;17.59;68.36
48942;BME280;35340;52.378;4.648;2022-10-16T14:34:34;101664.06;;;17.64;69.00
48942;BME280;35340;52.378;4.648;2022-10-16T14:37:05;101668.34;;;17.59;69.55
48942;BME280;35340;52.378;4.648;2022-10-16T14:39:32;101663.16;;;17.60;68.75
48942;BME280;35340;52.378;4.648;2022-10-16T14:41:58;101659.66;;;17.57;69.55
48942;BME280;35340;52.378;4.648;2022-10-16T14:44:28;101664.00;;;17.52;70.99
48942;BME280;35340;52.378;4.648;2022-10-16T14:46:55;101657.06;;;17.49;70.35
48942;BME280;35340;52.378;4.648;2022-10-16T14:49:21;101663.13;;;17.50;70.46
48942;BME280;35340;52.378;4.648;2022-10-16T14:51:47;101667.44;;;17.47;71.58
48942;BME280;35340;52.378;4.648;2022-10-16T14:54:17;101667.44;;;17.47;71.71
48942;BME280;35340;52.378;4.648;2022-10-16T14:56:55;101663.97;;;17.47;71.34
48942;BME280;35340;52.378;4.648;2022-10-16T14:59:41;101673.53;;;17.46;72.01
48942;BME280;35340;52.378;4.648;2022-10-16T15:02:38;101664.84;;;17.46;71.71
48942;BME280;35340;52.378;4.648;2022-10-16T15:05:24;101660.53;;;17.46;72.93
48942;BME280;35340;52.378;4.648;2022-10-16T15:07:52;101669.16;;;17.45;72.46
48942;BME280;35340;52.378;4.648;2022-10-16T15:10:19;101668.31;;;17.46;73.33
48942;BME280;35340;52.378;4.648;2022-10-16T15:12:46;101663.13;;;17.46;71.85
48942;BME280;35340;52.378;4.648;2022-10-16T15:18:02;101667.44;;;17.47;72.49
48942;BME280;35340;52.378;4.648;2022-10-16T15:20:31;101663.97;;;17.47;73.91
48942;BME280;35340;52.378;4.648;2022-10-16T15:22:59;101670.94;;;17.46;72.18
48942;BME280;35340;52.378;4.648;2022-10-16T15:25:38;101672.63;;;17.46;72.43
48942;BME280;35340;52.378;4.648;2022-10-16T15:28:07;101662.22;;;17.46;73.02
48942;BME280;35340;52.378;4.648;2022-10-16T15:30:33;101669.16;;;17.45;72.26
48942;BME280;35340;52.378;4.648;2022-10-16T15:32:59;101666.56;;;17.45;72.85
48942;BME280;35340;52.378;4.648;2022-10-16T15:35:25;101665.72;;;17.45;73.17
48942;BME280;35340;52.378;4.648;2022-10-16T15:37:50;101660.50;;;17.48;72.39
48942;BME280;35340;52.378;4.648;2022-10-16T15:40:17;101652.72;;;17.46;73.48
48942;BME280;35340;52.378;4.648;2022-10-16T15:42:43;101664.84;;;17.44;73.02
48942;BME280;35340;52.378;4.648;2022-10-16T15:45:10;101664.84;;;17.44;73.36
48942;BME280;35340;52.378;4.648;2022-10-16T15:47:35;101660.50;;;17.45;72.36
48942;BME280;35340;52.378;4.648;2022-10-16T15:50:01;101674.38;;;17.45;72.68
48942;BME280;35340;52.378;4.648;2022-10-16T15:52:27;101674.38;;;17.45;72.35
48942;BME280;35340;52.378;4.648;2022-10-16T15:54:54;101673.50;;;17.43;73.46
48942;BME280;35340;52.378;4.648;2022-10-16T15:57:19;101676.13;;;17.45;72.63
48942;BME280;35340;52.378;4.648;2022-10-16T15:59:45;101671.75;;;17.44;72.90
48942;BME280;35340;52.378;4.648;2022-10-16T16:02:10;101670.03;;;17.43;73.16
48942;BME280;35340;52.378;4.648;2022-10-16T16:04:35;101676.97;;;17.42;72.66
48942;BME280;35340;52.378;4.648;2022-10-16T16:07:01;101680.47;;;17.44;72.71
48942;BME280;35340;52.378;4.648;2022-10-16T16:09:29;101674.34;;;17.44;72.91
48942;BME280;35340;52.378;4.648;2022-10-16T16:11:54;101670.91;;;17.43;72.97
48942;BME280;35340;52.378;4.648;2022-10-16T16:14:20;101670.06;;;17.44;72.36
48942;BME280;35340;52.378;4.648;2022-10-16T16:16:45;101675.28;;;17.49;72.96
48942;BME280;35340;52.378;4.648;2022-10-16T16:19:11;101679.59;;;17.47;73.32
48942;BME280;35340;52.378;4.648;2022-10-16T16:21:36;101677.94;;;17.69;74.44
48942;BME280;35340;52.378;4.648;2022-10-16T16:24:01;101679.69;;;17.68;75.79
48942;BME280;35340;52.378;4.648;2022-10-16T16:26:34;101679.63;;;17.61;75.03
48942;BME280;35340;52.378;4.648;2022-10-16T16:29:02;101676.16;;;17.56;74.12
48942;BME280;35340;52.378;4.648;2022-10-16T16:31:30;101691.78;;;17.56;73.63
48942;BME280;35340;52.378;4.648;2022-10-16T16:33:56;101699.56;;;17.53;73.81
48942;BME280;35340;52.378;4.648;2022-10-16T16:36:22;101699.53;;;17.48;74.79
48942;BME280;35340;52.378;4.648;2022-10-16T16:38:47;101695.19;;;17.44;73.96
48942;BME280;35340;52.378;4.648;2022-10-16T16:41:28;101689.09;;;17.40;75.42
48942;BME280;35340;52.378;4.648;2022-10-16T16:43:54;101691.69;;;17.39;74.24
48942;BME280;35340;52.378;4.648;2022-10-16T16:46:20;101691.69;;;17.39;74.99
48942;BME280;35340;52.378;4.648;2022-10-16T16:48:46;101694.28;;;17.37;75.15
48942;BME280;35340;52.378;4.648;2022-10-16T16:51:14;101699.50;;;17.36;74.98
48942;BME280;35340;52.378;4.648;2022-10-16T16:53:41;101688.22;;;17.34;75.95
48942;BME280;35340;52.378;4.648;2022-10-16T16:56:07;101688.22;;;17.34;75.36
48942;BME280;35340;52.378;4.648;2022-10-16T16:58:33;101694.25;;;17.33;74.92
48942;BME280;35340;52.378;4.648;2022-10-16T17:01:00;101702.09;;;17.34;75.78
48942;BME280;35340;52.378;4.648;2022-10-16T17:03:27;101708.13;;;17.33;76.67
48942;BME280;35340;52.378;4.648;2022-10-16T17:06:06;101715.06;;;17.33;77.33
48942;BME280;35340;52.378;4.648;2022-10-16T17:08:34;101721.19;;;17.36;77.02
48942;BME280;35340;52.378;4.648;2022-10-16T17:11:00;101716.84;;;17.41;77.33
48942;BME280;35340;52.378;4.648;2022-10-16T17:13:30;101714.22;;;17.35;77.52
48942;BME280;35340;52.378;4.648;2022-10-16T17:15:56;101720.28;;;17.33;78.37
48942;BME280;35340;52.378;4.648;2022-10-16T17:18:23;101721.13;;;17.27;78.81
48942;BME280;35340;52.378;4.648;2022-10-16T17:20:49;101723.69;;;17.21;79.03
48942;BME280;35340;52.378;4.648;2022-10-16T17:23:16;101720.22;;;17.19;79.65
48942;BME280;35340;52.378;4.648;2022-10-16T17:25:42;101732.34;;;17.20;79.40